createdAt,value
2019-03-23T00:00:26.693Z,57.09
2019-03-23T00:02:56.313Z,56.96
2019-03-23T00:05:25.859Z,57.21
2019-03-23T00:07:55.364Z,57.25
2019-03-23T00:10:24.901Z,57.36
2019-03-23T00:12:54.409Z,57.59
2019-03-23T00:15:23.936Z,57.52
2019-03-23T00:17:55.080Z,57.67
2019-03-23T00:20:24.563Z,57.91
2019-03-23T00:22:54.092Z,57.81
2019-03-23T00:25:23.590Z,57.94
2019-03-23T00:27:53.069Z,57.93
2019-03-23T00:30:22.586Z,58.14
2019-03-23T00:32:52.159Z,58.21
2019-03-23T00:35:21.670Z,58.20
2019-03-23T00:37:51.122Z,58.30
2019-03-23T00:40:20.753Z,58.46
2019-03-23T00:42:50.303Z,58.41
2019-03-23T00:45:19.799Z,58.64
2019-03-23T00:47:49.419Z,58.75
2019-03-23T00:50:18.877Z,58.82
2019-03-23T00:52:48.355Z,58.93
2019-03-23T00:55:17.845Z,58.90
2019-03-23T00:57:47.365Z,58.94
2019-03-23T01:00:17.150Z,59.19
2019-03-23T01:02:46.631Z,59.16
2019-03-23T01:05:16.566Z,59.27
2019-03-23T01:07:46.091Z,59.48
2019-03-23T01:10:15.992Z,59.58
2019-03-23T01:12:45.624Z,59.62
2019-03-23T01:15:15.552Z,59.69
2019-03-23T01:17:45.010Z,59.79
2019-03-23T01:20:15.458Z,59.74
2019-03-23T01:22:44.854Z,59.92
2019-03-23T01:25:14.583Z,59.94
2019-03-23T01:27:44.031Z,60.10
2019-03-23T01:30:14.894Z,60.35
2019-03-23T01:32:44.472Z,60.45
2019-03-23T01:35:14.082Z,60.57
2019-03-23T01:37:43.567Z,60.66
2019-03-23T01:40:14.935Z,60.77
2019-03-23T01:42:44.419Z,60.63
2019-03-23T01:45:15.119Z,60.97
2019-03-23T01:47:44.605Z,60.85
2019-03-23T01:50:14.512Z,60.78
2019-03-23T01:52:44.127Z,61.01
2019-03-23T01:55:14.058Z,61.40
2019-03-23T01:57:43.677Z,61.34
2019-03-23T02:00:14.611Z,61.30
2019-03-23T02:02:44.174Z,61.53
2019-03-23T02:05:13.768Z,61.68
2019-03-23T02:07:43.329Z,61.56
2019-03-23T02:10:13.553Z,61.84
2019-03-23T02:12:43.178Z,61.73
2019-03-23T02:15:13.698Z,61.92
2019-03-23T02:17:43.150Z,61.93
2019-03-23T02:20:14.246Z,61.95
2019-03-23T02:22:44.707Z,62.00
2019-03-23T02:25:14.343Z,62.13
2019-03-23T02:27:43.875Z,62.38
2019-03-23T02:30:14.271Z,62.44
2019-03-23T02:32:44.035Z,62.52
2019-03-23T02:35:13.676Z,62.61
2019-03-23T02:37:43.172Z,62.37
2019-03-23T02:40:13.185Z,62.64
2019-03-23T02:42:42.647Z,62.88
2019-03-23T02:45:13.951Z,62.72
2019-03-23T02:47:43.454Z,62.89
2019-03-23T02:50:13.209Z,62.73
2019-03-23T02:52:42.662Z,62.90
2019-03-23T02:55:12.853Z,63.05
2019-03-23T02:57:42.340Z,63.29
2019-03-23T03:00:14.516Z,65.26
2019-03-23T03:02:45.181Z,66.99
2019-03-23T03:05:14.882Z,67.59
2019-03-23T03:07:44.368Z,67.42
2019-03-23T03:10:36.359Z,66.32
2019-03-23T03:13:05.984Z,67.71
2019-03-23T03:15:35.513Z,67.50
2019-03-23T03:18:06.918Z,67.66
2019-03-23T03:20:36.467Z,68.07
2019-03-23T03:23:06.017Z,68.27
2019-03-23T03:25:37.118Z,67.60
2019-03-23T03:28:06.752Z,67.26
2019-03-23T03:30:36.440Z,69.07
2019-03-23T03:33:06.019Z,69.50
2019-03-23T03:35:37.183Z,70.08
2019-03-23T03:38:06.655Z,70.37
2019-03-23T03:40:36.225Z,70.64
2019-03-23T03:43:05.766Z,70.94
2019-03-23T03:45:35.332Z,70.97
2019-03-23T03:48:04.856Z,70.96
2019-03-23T03:50:34.405Z,70.92
2019-03-23T03:53:03.977Z,70.83
2019-03-23T03:55:33.454Z,70.92
2019-03-23T03:58:02.943Z,70.82
2019-03-23T04:00:32.485Z,70.85
2019-03-23T04:03:01.982Z,70.72
2019-03-23T04:05:31.527Z,70.59
2019-03-23T04:08:11.093Z,70.51
2019-03-23T04:10:32.197Z,70.42
2019-03-23T04:13:01.712Z,70.28
2019-03-23T04:15:31.257Z,70.16
2019-03-23T04:18:02.377Z,70.02
2019-03-23T04:20:31.873Z,69.95
2019-03-23T04:23:01.336Z,69.78
2019-03-23T04:25:30.819Z,69.70
2019-03-23T04:28:00.295Z,69.56
2019-03-23T04:30:29.855Z,69.47
2019-03-23T04:32:59.319Z,69.37
2019-03-23T04:35:28.832Z,69.24
2019-03-23T04:37:58.465Z,69.15
2019-03-23T04:40:27.954Z,69.02
2019-03-23T04:42:57.513Z,68.95
2019-03-23T04:45:27.011Z,68.84
2019-03-23T04:47:56.504Z,68.71
2019-03-23T04:50:25.968Z,68.65
2019-03-23T04:52:55.459Z,68.52
2019-03-23T04:55:25.007Z,68.47
2019-03-23T04:57:54.634Z,68.38
2019-03-23T05:00:24.202Z,68.26
2019-03-23T05:02:53.706Z,68.21
2019-03-23T05:05:23.184Z,68.12
2019-03-23T05:07:52.655Z,68.16
2019-03-23T05:10:22.156Z,68.07
2019-03-23T05:12:51.689Z,68.10
2019-03-23T05:15:21.275Z,68.11
2019-03-23T05:17:50.755Z,68.12
2019-03-23T05:20:30.098Z,68.11
2019-03-23T05:22:59.890Z,68.12
2019-03-23T05:25:30.821Z,68.04
2019-03-23T05:28:00.371Z,68.06
2019-03-23T05:30:29.909Z,68.15
2019-03-23T05:32:59.509Z,68.13
2019-03-23T05:35:28.984Z,68.10
2019-03-23T05:37:58.475Z,68.07
2019-03-23T05:40:28.016Z,68.05
2019-03-23T05:42:57.505Z,68.02
2019-03-23T05:45:26.978Z,67.99
2019-03-23T05:47:56.468Z,67.97
2019-03-23T05:50:25.965Z,68.06
2019-03-23T05:52:55.429Z,67.88
2019-03-23T05:55:24.921Z,67.78
2019-03-23T05:57:54.425Z,67.84
2019-03-23T06:00:23.920Z,67.86
2019-03-23T06:02:53.423Z,67.85
2019-03-23T06:05:24.668Z,67.89
2019-03-23T06:07:54.153Z,67.89
2019-03-23T06:10:23.596Z,67.93
2019-03-23T06:12:53.073Z,67.94
2019-03-23T06:15:22.603Z,67.93
2019-03-23T06:17:52.077Z,67.93
2019-03-23T06:20:21.571Z,67.95
2019-03-23T06:22:51.037Z,67.89
2019-03-23T06:25:20.693Z,67.85
2019-03-23T06:27:50.145Z,67.82
2019-03-23T06:30:19.643Z,67.77
2019-03-23T06:32:49.168Z,67.75
2019-03-23T06:35:18.745Z,67.48
2019-03-23T06:37:48.214Z,67.37
2019-03-23T06:40:17.768Z,67.32
2019-03-23T06:42:47.344Z,67.12
2019-03-23T06:45:16.921Z,66.99
2019-03-23T06:47:48.058Z,67.06
2019-03-23T06:50:17.644Z,66.94
2019-03-23T06:52:47.186Z,66.81
2019-03-23T06:55:16.683Z,66.82
2019-03-23T06:57:46.183Z,67.06
2019-03-23T07:00:17.493Z,66.95
2019-03-23T07:02:47.131Z,66.68
2019-03-23T07:05:16.709Z,66.20
2019-03-23T07:07:46.209Z,66.16
2019-03-23T07:10:16.615Z,66.11
2019-03-23T07:12:46.117Z,65.85
2019-03-23T07:15:20.290Z,65.89
2019-03-23T07:17:46.901Z,65.83
2019-03-23T07:20:16.517Z,65.80
2019-03-23T07:22:46.130Z,65.94
2019-03-23T07:25:15.788Z,65.93
2019-03-23T07:27:45.295Z,65.58
2019-03-23T07:30:17.307Z,65.47
2019-03-23T07:32:46.963Z,65.53
2019-03-23T07:35:17.018Z,65.58
2019-03-23T07:37:46.478Z,65.55
2019-03-23T07:40:16.277Z,65.32
2019-03-23T07:42:45.839Z,65.02
2019-03-23T07:45:36.962Z,64.91
2019-03-23T07:48:06.478Z,64.94
2019-03-23T07:50:35.972Z,64.70
2019-03-23T07:53:05.982Z,64.91
2019-03-23T07:55:35.563Z,64.68
2019-03-23T07:58:05.114Z,64.86
2019-03-23T08:00:34.639Z,64.76
2019-03-23T08:03:04.112Z,65.03
2019-03-23T08:05:33.605Z,64.60
2019-03-23T08:08:03.085Z,64.73
2019-03-23T08:10:35.720Z,64.66
2019-03-23T08:13:05.441Z,64.37
2019-03-23T08:15:35.016Z,64.27
2019-03-23T08:18:04.496Z,63.85
2019-03-23T08:20:34.096Z,64.12
2019-03-23T08:23:03.655Z,63.55
2019-03-23T08:25:33.211Z,63.11
2019-03-23T08:28:02.788Z,63.07
2019-03-23T08:30:32.360Z,62.97
2019-03-23T08:33:01.893Z,62.54
2019-03-23T08:35:31.410Z,62.86
2019-03-23T08:38:00.894Z,62.08
2019-03-23T08:40:30.418Z,61.68
2019-03-23T08:42:59.978Z,61.31
2019-03-23T08:45:29.560Z,61.09
2019-03-23T08:47:59.060Z,60.85
2019-03-23T08:50:28.650Z,61.25
2019-03-23T08:52:58.138Z,60.85
2019-03-23T08:55:27.649Z,60.78
2019-03-23T08:57:57.222Z,60.42
2019-03-23T09:00:26.764Z,61.21
2019-03-23T09:02:56.354Z,60.94
2019-03-23T09:05:25.904Z,60.70
2019-03-23T09:07:55.498Z,60.83
2019-03-23T09:10:24.982Z,59.36
2019-03-23T09:12:54.477Z,59.78
2019-03-23T09:15:24.011Z,59.21
2019-03-23T09:17:53.545Z,59.03
2019-03-23T09:20:23.085Z,58.47
2019-03-23T09:22:52.602Z,58.72
2019-03-23T09:25:22.065Z,57.14
2019-03-23T09:27:51.577Z,57.77
2019-03-23T09:30:21.219Z,57.34
2019-03-23T09:32:50.724Z,56.47
2019-03-23T09:35:20.219Z,57.17
2019-03-23T09:37:49.730Z,57.31
2019-03-23T09:40:19.360Z,57.30
2019-03-23T09:42:48.856Z,56.04
2019-03-23T09:45:18.626Z,56.43
2019-03-23T09:47:48.093Z,55.22
2019-03-23T09:50:17.745Z,55.45
2019-03-23T09:52:47.221Z,55.25
2019-03-23T09:55:16.726Z,54.37
2019-03-23T09:57:46.238Z,54.45
2019-03-23T10:00:15.890Z,54.23
2019-03-23T10:02:45.404Z,54.80
2019-03-23T10:05:14.956Z,54.15
2019-03-23T10:07:44.457Z,53.69
2019-03-23T10:10:21.640Z,53.22
2019-03-23T10:12:45.317Z,53.69
2019-03-23T10:15:14.880Z,53.66
2019-03-23T10:17:44.375Z,53.79
2019-03-23T10:20:14.254Z,53.54
2019-03-23T10:22:43.729Z,52.62
2019-03-23T10:25:13.318Z,52.34
2019-03-23T10:27:42.798Z,53.02
2019-03-23T10:30:31.679Z,52.61
2019-03-23T10:33:01.183Z,52.55
2019-03-23T10:35:30.659Z,51.92
2019-03-23T10:38:00.184Z,52.36
2019-03-23T10:40:32.816Z,52.10
2019-03-23T10:43:01.070Z,52.43
2019-03-23T10:45:30.660Z,52.79
2019-03-23T10:48:00.181Z,52.55
2019-03-23T10:50:29.667Z,52.40
2019-03-23T10:52:59.262Z,52.66
2019-03-23T10:55:28.827Z,51.88
2019-03-23T10:57:58.380Z,52.59
2019-03-23T11:00:27.879Z,51.66
2019-03-23T11:03:16.789Z,51.88
2019-03-23T11:05:46.366Z,51.52
2019-03-23T11:08:15.919Z,52.30
2019-03-23T11:10:45.436Z,52.00
2019-03-23T11:13:14.983Z,52.03
2019-03-23T11:15:44.507Z,52.13
2019-03-23T11:18:13.987Z,52.14
2019-03-23T11:20:43.554Z,52.13
2019-03-23T11:23:13.040Z,51.69
2019-03-23T11:25:42.586Z,51.93
2019-03-23T11:28:12.080Z,52.07
2019-03-23T11:30:41.546Z,52.28
2019-03-23T11:33:11.065Z,52.28
2019-03-23T11:35:40.565Z,51.95
2019-03-23T11:38:10.096Z,51.95
2019-03-23T11:40:39.569Z,51.91
2019-03-23T11:43:09.080Z,51.65
2019-03-23T11:45:38.596Z,51.95
2019-03-23T11:48:08.091Z,51.97
2019-03-23T11:50:37.636Z,52.77
2019-03-23T11:53:07.145Z,52.74
2019-03-23T11:55:36.638Z,52.41
2019-03-23T11:58:06.303Z,52.12
2019-03-23T12:00:35.983Z,52.00
2019-03-23T12:03:05.615Z,52.51
2019-03-23T12:05:35.112Z,52.30
2019-03-23T12:08:04.676Z,52.18
2019-03-23T12:10:34.174Z,52.24
2019-03-23T12:13:23.042Z,51.54
2019-03-23T12:15:52.577Z,52.17
2019-03-23T12:18:22.088Z,51.29
2019-03-23T12:20:51.568Z,51.55
2019-03-23T12:23:21.084Z,52.30
2019-03-23T12:25:50.564Z,51.96
2019-03-23T12:28:20.049Z,51.54
2019-03-23T12:30:49.576Z,52.71
2019-03-23T12:33:21.360Z,52.17
2019-03-23T12:35:50.347Z,51.65
2019-03-23T12:38:19.867Z,51.85
2019-03-23T12:40:49.382Z,51.93
2019-03-23T12:43:18.879Z,51.10
2019-03-23T12:45:48.430Z,50.18
2019-03-23T12:48:17.979Z,50.26
2019-03-23T12:50:47.637Z,49.57
2019-03-23T12:53:17.156Z,49.17
2019-03-23T12:55:46.627Z,49.15
2019-03-23T12:58:16.117Z,48.99
2019-03-23T13:00:45.635Z,47.61
2019-03-23T13:03:15.114Z,48.35
2019-03-23T13:05:44.592Z,49.32
2019-03-23T13:08:14.134Z,47.19
2019-03-23T13:10:43.657Z,46.95
2019-03-23T13:13:13.160Z,48.11
2019-03-23T13:15:42.660Z,46.81
2019-03-23T13:18:12.235Z,47.49
2019-03-23T13:20:41.728Z,46.85
2019-03-23T13:23:12.714Z,47.52
2019-03-23T13:25:42.453Z,46.51
2019-03-23T13:28:11.962Z,46.87
2019-03-23T13:30:41.510Z,46.28
2019-03-23T13:33:11.007Z,46.51
2019-03-23T13:35:59.936Z,45.82
2019-03-23T13:38:29.435Z,46.38
2019-03-23T13:40:59.020Z,47.61
2019-03-23T13:43:28.506Z,46.43
2019-03-23T13:45:58.048Z,47.86
2019-03-23T13:48:27.514Z,46.17
2019-03-23T13:50:57.011Z,45.88
2019-03-23T13:53:26.528Z,46.25
2019-03-23T13:55:56.010Z,46.04
2019-03-23T13:58:25.526Z,46.43
2019-03-23T14:00:55.007Z,45.90
2019-03-23T14:03:24.536Z,45.85
2019-03-23T14:05:54.052Z,46.41
2019-03-23T14:08:23.538Z,46.25
2019-03-23T14:11:12.510Z,46.27
2019-03-23T14:13:42.006Z,46.82
2019-03-23T14:16:11.533Z,46.18
2019-03-23T14:18:41.070Z,45.86
2019-03-23T14:21:10.658Z,45.34
2019-03-23T14:23:40.193Z,45.90
2019-03-23T14:26:09.884Z,45.12
2019-03-23T14:28:39.384Z,45.30
2019-03-23T14:31:08.898Z,45.26
2019-03-23T14:33:40.158Z,44.91
2019-03-23T14:36:09.619Z,44.96
2019-03-23T14:38:39.157Z,45.62
2019-03-23T14:41:08.671Z,45.93
2019-03-23T14:43:38.150Z,46.21
2019-03-23T14:46:07.659Z,45.42
2019-03-23T14:48:37.154Z,45.91
2019-03-23T14:51:06.797Z,45.21
2019-03-23T14:53:36.267Z,44.37
2019-03-23T14:56:05.907Z,44.79
2019-03-23T14:58:35.392Z,44.58
2019-03-23T15:01:05.033Z,45.22
2019-03-23T15:03:34.548Z,44.62
2019-03-23T15:06:04.099Z,45.03
2019-03-23T15:08:33.650Z,44.32
2019-03-23T15:11:03.167Z,44.48
2019-03-23T15:13:32.671Z,44.74
2019-03-23T15:16:02.220Z,44.83
2019-03-23T15:18:31.721Z,46.02
2019-03-23T15:21:01.305Z,45.17
2019-03-23T15:23:30.766Z,46.45
2019-03-23T15:26:00.265Z,45.89
2019-03-23T15:28:31.396Z,46.35
2019-03-23T15:31:00.943Z,46.10
2019-03-23T15:33:30.396Z,46.30
2019-03-23T15:35:59.893Z,46.97
2019-03-23T15:38:29.432Z,46.76
2019-03-23T15:40:58.961Z,46.68
2019-03-23T15:43:28.677Z,47.19
2019-03-23T15:45:58.157Z,47.76
2019-03-23T15:48:28.694Z,47.46
2019-03-23T15:50:58.439Z,47.87
2019-03-23T15:53:27.948Z,47.77
2019-03-23T15:55:57.421Z,48.40
2019-03-23T15:58:26.899Z,48.04
2019-03-23T16:00:56.470Z,49.00
2019-03-23T16:03:25.940Z,48.81
2019-03-23T16:05:55.449Z,49.10
2019-03-23T16:08:25.073Z,48.66
2019-03-23T16:10:54.548Z,48.85
2019-03-23T16:13:24.068Z,48.94
2019-03-23T16:15:53.635Z,49.39
2019-03-23T16:18:23.223Z,49.83
2019-03-23T16:20:52.724Z,49.35
2019-03-23T16:23:22.302Z,49.64
2019-03-23T16:25:51.868Z,49.68
2019-03-23T16:28:21.485Z,49.96
2019-03-23T16:30:51.075Z,50.32
2019-03-23T16:33:20.564Z,50.19
2019-03-23T16:35:50.244Z,50.57
2019-03-23T16:38:19.766Z,50.35
2019-03-23T16:40:49.382Z,50.49
2019-03-23T16:43:18.927Z,50.56
2019-03-23T16:45:48.439Z,50.76
2019-03-23T16:48:17.995Z,51.02
2019-03-23T16:50:47.591Z,51.22
2019-03-23T16:53:17.094Z,51.42
2019-03-23T16:55:46.607Z,51.84
2019-03-23T16:58:16.563Z,51.82
2019-03-23T17:00:46.198Z,51.85
2019-03-23T17:03:15.745Z,52.38
2019-03-23T17:05:45.394Z,52.25
2019-03-23T17:08:14.933Z,52.38
2019-03-23T17:10:44.472Z,52.93
2019-03-23T17:13:14.105Z,52.77
2019-03-23T17:15:43.664Z,52.99
2019-03-23T17:18:13.153Z,52.71
2019-03-23T17:20:43.227Z,53.06
2019-03-23T17:23:12.741Z,53.29
2019-03-23T17:25:42.284Z,53.48
2019-03-23T17:28:11.882Z,53.47
2019-03-23T17:30:41.395Z,53.59
2019-03-23T17:33:10.895Z,53.82
2019-03-23T17:35:40.453Z,53.91
2019-03-23T17:38:09.971Z,54.41
2019-03-23T17:40:39.551Z,54.39
2019-03-23T17:43:09.157Z,54.44
2019-03-23T17:45:38.737Z,54.49
2019-03-23T17:48:08.231Z,54.47
2019-03-23T17:50:37.778Z,54.62
2019-03-23T17:53:07.318Z,54.55
2019-03-23T17:55:37.779Z,54.69
2019-03-23T17:58:07.357Z,55.04
2019-03-23T18:00:36.892Z,55.01
2019-03-23T18:03:06.420Z,55.19
2019-03-23T18:05:36.007Z,55.39
2019-03-23T18:08:05.730Z,55.06
2019-03-23T18:10:35.277Z,55.41
2019-03-23T18:13:04.887Z,55.35
2019-03-23T18:15:34.356Z,55.59
2019-03-23T18:18:03.864Z,55.44
2019-03-23T18:20:33.374Z,55.68
2019-03-23T18:23:02.936Z,55.73
2019-03-23T18:25:32.521Z,56.06
2019-03-23T18:28:02.183Z,55.96
2019-03-23T18:30:38.393Z,56.03
2019-03-23T18:33:08.089Z,56.15
2019-03-23T18:35:37.702Z,56.10
2019-03-23T18:38:07.504Z,56.30
2019-03-23T18:40:37.486Z,56.35
2019-03-23T18:43:07.520Z,56.51
2019-03-23T18:45:37.269Z,56.44
2019-03-23T18:48:07.147Z,56.44
2019-03-23T18:50:36.747Z,56.35
2019-03-23T18:53:06.391Z,56.51
2019-03-23T18:55:36.023Z,56.66
2019-03-23T18:58:05.907Z,56.94
2019-03-23T19:00:41.466Z,56.84
2019-03-23T19:03:30.239Z,57.21
2019-03-23T19:05:59.794Z,56.89
2019-03-23T19:08:29.336Z,56.95
2019-03-23T19:10:58.822Z,56.96
2019-03-23T19:13:37.585Z,57.06
2019-03-23T19:15:59.627Z,57.13
2019-03-23T19:18:29.265Z,57.40
2019-03-23T19:20:58.744Z,57.66
2019-03-23T19:23:28.247Z,57.54
2019-03-23T19:25:57.722Z,57.83
2019-03-23T19:28:27.242Z,57.75
2019-03-23T19:30:58.257Z,57.77
2019-03-23T19:33:27.867Z,57.59
2019-03-23T19:35:57.363Z,57.79
2019-03-23T19:38:26.952Z,57.86
2019-03-23T19:40:56.431Z,57.84
2019-03-23T19:43:25.947Z,57.99
2019-03-23T19:45:55.525Z,58.02
2019-03-23T19:48:25.156Z,58.04
2019-03-23T19:50:54.715Z,58.15
2019-03-23T19:53:24.310Z,57.97
2019-03-23T19:55:53.872Z,57.94
2019-03-23T19:58:23.408Z,57.95
2019-03-23T20:00:53.013Z,57.92
2019-03-23T20:03:22.486Z,58.14
2019-03-23T20:05:52.103Z,58.58
2019-03-23T20:08:21.570Z,59.18
2019-03-23T20:10:51.034Z,58.92
2019-03-23T20:13:20.573Z,58.65
2019-03-23T20:15:50.102Z,58.51
2019-03-23T20:18:19.595Z,58.52
2019-03-23T20:20:49.100Z,59.41
2019-03-23T20:23:18.619Z,59.56
2019-03-23T20:25:48.098Z,59.57
2019-03-23T20:28:19.051Z,59.50
2019-03-23T20:30:48.632Z,59.70
2019-03-23T20:33:19.612Z,60.00
2019-03-23T20:35:49.437Z,59.86
2019-03-23T20:38:18.953Z,60.31
2019-03-23T20:40:48.477Z,60.25
2019-03-23T20:43:17.998Z,60.44
2019-03-23T20:45:48.015Z,60.21
2019-03-23T20:48:18.328Z,60.29
2019-03-23T20:50:48.225Z,60.55
2019-03-23T20:53:19.360Z,60.53
2019-03-23T20:55:48.894Z,60.91
2019-03-23T20:58:18.412Z,60.91
2019-03-23T21:00:47.971Z,60.77
2019-03-23T21:03:17.468Z,60.92
2019-03-23T21:05:46.955Z,60.99
2019-03-23T21:08:16.519Z,61.16
2019-03-23T21:10:46.156Z,61.33
2019-03-23T21:13:15.741Z,60.95
2019-03-23T21:15:45.288Z,60.92
2019-03-23T21:18:14.751Z,61.43
2019-03-23T21:20:44.245Z,61.43
2019-03-23T21:23:13.793Z,61.57
2019-03-23T21:25:43.304Z,61.48
2019-03-23T21:28:15.821Z,61.40
2019-03-23T21:30:45.331Z,61.69
2019-03-23T21:33:14.832Z,61.76
2019-03-23T21:35:44.336Z,61.74
2019-03-23T21:38:13.821Z,61.80
2019-03-23T21:40:43.465Z,61.69
2019-03-23T21:43:12.938Z,61.72
2019-03-23T21:45:42.583Z,62.04
2019-03-23T21:48:12.101Z,61.96
2019-03-23T21:50:47.491Z,61.94
2019-03-23T21:53:12.895Z,61.94
2019-03-23T21:55:42.373Z,62.15
2019-03-23T21:58:11.950Z,62.21
2019-03-23T22:00:41.535Z,61.80
2019-03-23T22:03:11.015Z,62.29
2019-03-23T22:05:40.600Z,62.46
2019-03-23T22:08:10.173Z,62.30
2019-03-23T22:10:39.799Z,62.23
2019-03-23T22:13:09.372Z,62.33
2019-03-23T22:15:38.997Z,62.30
2019-03-23T22:18:08.549Z,62.44
2019-03-23T22:20:38.050Z,62.57
2019-03-23T22:23:07.629Z,62.66
2019-03-23T22:25:37.107Z,62.61
2019-03-23T22:28:06.751Z,62.71
2019-03-23T22:30:36.374Z,62.82
2019-03-23T22:33:05.996Z,62.89
2019-03-23T22:35:35.723Z,62.88
2019-03-23T22:38:05.440Z,63.01
2019-03-23T22:40:35.027Z,63.21
2019-03-23T22:43:04.572Z,63.30
2019-03-23T22:45:35.789Z,63.18
2019-03-23T22:48:05.517Z,63.32
2019-03-23T22:50:35.110Z,63.53
2019-03-23T22:53:04.686Z,63.33
2019-03-23T22:55:34.191Z,63.44
2019-03-23T22:58:03.706Z,63.46
2019-03-23T23:00:43.863Z,63.59
2019-03-23T23:03:13.640Z,63.55
2019-03-23T23:05:43.317Z,63.64
2019-03-23T23:08:12.977Z,63.78
2019-03-23T23:10:42.522Z,63.78
2019-03-23T23:13:12.211Z,63.91
2019-03-23T23:15:41.864Z,63.96
2019-03-23T23:18:11.438Z,64.02
2019-03-23T23:20:40.941Z,64.07
2019-03-23T23:23:10.416Z,64.08
2019-03-23T23:25:39.920Z,64.15
2019-03-23T23:28:09.520Z,64.07
2019-03-23T23:30:39.010Z,64.20
2019-03-23T23:33:08.556Z,64.31
2019-03-23T23:35:38.038Z,64.36
2019-03-23T23:38:07.522Z,64.32
2019-03-23T23:40:37.036Z,64.51
2019-03-23T23:43:06.570Z,64.46
2019-03-23T23:45:36.131Z,64.28
2019-03-23T23:48:05.808Z,64.36
2019-03-23T23:50:35.316Z,64.37
2019-03-23T23:53:04.943Z,64.25
2019-03-23T23:55:34.568Z,64.37
2019-03-23T23:58:04.225Z,64.39
